^^
Hermosillo Station Historical Data
 
Daily Summary for June 25, 2018 Units:  Both    English   Metric
Daily Weekly Monthly Yearly Custom
  Current: High: Low: Average:
Temperature: 97.0 °F /  36.1 °C 97.0 °F /  36.1 °C 79.2 °F /  26.2 °C 84.6 °F /  29.2 °C
Dew Point: 64.8 °F /  18.2 °C 68.4 °F /  20.2 °C 61.2 °F /  16.2 °C 64.3 °F /  17.9 °C
Humidity: 35% 69% 35% 52%
Wind Speed: 1.0mph /  1.6km/h 7.0mph /  11.3km/h - 2.5mph /  4km/h
Wind Gust: 0.1mph /  0.2km/h 5.4mph /  8.7km/h - -
WindENE - - SSW
Pressure: 29.83 in /  1010 hPa 29.86 in /  1011.1 hPa 29.80 in /  1009 hPa -
Precipitation: 0.00 in /  0 mm      
Historical Graphs
 
 
Tabular Data for June 25, 2018
Time Temperature Dew Point Pressure Wind Wind Speed Wind Gust Humidity Rainfall Rate (Hourly) solar
00:04 84.2 °F /  29 °C 64.1 °F /  17.8 °C 29.81in /  1009.4hPa West 4.6mph /  7.4km/h 3.6mph /  5.8km/h 51% 0.00in /  0mm WeatherDisplay:10.37 W/m2
00:09 83.9 °F /  28.8 °C 64.4 °F /  18 °C 29.82in /  1009.7hPa WNW 3.5mph /  5.6km/h 2.3mph /  3.7km/h 52% 0.00in /  0mm WeatherDisplay:10.37 W/m2
00:14 83.8 °F /  28.8 °C 64.3 °F /  17.9 °C 29.82in /  1009.7hPa West 2.3mph /  3.7km/h 1.5mph /  2.4km/h 52% 0.00in /  0mm WeatherDisplay:10.37 W/m2
00:19 83.7 °F /  28.7 °C 64.2 °F /  17.9 °C 29.82in /  1009.7hPa NW 2.3mph /  3.7km/h 1.6mph /  2.6km/h 52% 0.00in /  0mm WeatherDisplay:10.37 W/m2
00:24 83.4 °F /  28.6 °C 64.5 °F /  18.1 °C 29.82in /  1009.7hPa NW 3.5mph /  5.6km/h 2.5mph /  4km/h 53% 0.00in /  0mm WeatherDisplay:10.37 W/m2
00:29 83.2 °F /  28.4 °C 64.3 °F /  17.9 °C 29.81in /  1009.4hPa NW 2.3mph /  3.7km/h 1.9mph /  3.1km/h 53% 0.00in /  0mm WeatherDisplay:10.37 W/m2
00:34 83.1 °F /  28.4 °C 63.7 °F /  17.6 °C 29.81in /  1009.4hPa NW 2.3mph /  3.7km/h 0.6mph /  1km/h 52% 0.00in /  0mm WeatherDisplay:10.37 W/m2
00:39 83.1 °F /  28.4 °C 63.7 °F /  17.6 °C 29.81in /  1009.4hPa NW 1.2mph /  1.9km/h 0.2mph /  0.3km/h 52% 0.00in /  0mm WeatherDisplay:10.37 W/m2
00:44 83.2 °F /  28.4 °C 63.7 °F /  17.6 °C 29.81in /  1009.4hPa NW 1.2mph /  1.9km/h 0.1mph /  0.2km/h 52% 0.00in /  0mm WeatherDisplay:10.37 W/m2
00:49 83.3 °F /  28.5 °C 63.3 °F /  17.4 °C 29.81in /  1009.4hPa NW 3.5mph /  5.6km/h 2.5mph /  4km/h 51% 0.00in /  0mm WeatherDisplay:10.37 W/m2
00:54 83.3 °F /  28.5 °C 63.3 °F /  17.4 °C 29.81in /  1009.4hPa NW 3.5mph /  5.6km/h 2.1mph /  3.4km/h 51% 0.00in /  0mm WeatherDisplay:10.37 W/m2
00:59 83.3 °F /  28.5 °C 63.3 °F /  17.4 °C 29.81in /  1009.4hPa NW 2.3mph /  3.7km/h   51% 0.00in /  0mm WeatherDisplay:10.37 W/m2
01:04 83.3 °F /  28.5 °C 62.7 °F /  17.1 °C 29.81in /  1009.4hPa WNW 2.3mph /  3.7km/h 0.8mph /  1.3km/h 50% 0.00in /  0mm WeatherDisplay:10.37 W/m2
01:09 83.3 °F /  28.5 °C 62.7 °F /  17.1 °C 29.81in /  1009.4hPa Calm     50% 0.00in /  0mm WeatherDisplay:10.37 W/m2
01:14 83.3 °F /  28.5 °C 62.7 °F /  17.1 °C 29.80in /  1009hPa WNW 3.5mph /  5.6km/h 1.7mph /  2.7km/h 50% 0.00in /  0mm WeatherDisplay:10.37 W/m2
01:19 83.2 °F /  28.4 °C 62.6 °F /  17 °C 29.80in /  1009hPa WNW 3.5mph /  5.6km/h 1.7mph /  2.7km/h 50% 0.00in /  0mm WeatherDisplay:10.37 W/m2
01:24 83.2 °F /  28.4 °C 63.2 °F /  17.3 °C 29.80in /  1009hPa WNW 2.3mph /  3.7km/h 0.1mph /  0.2km/h 51% 0.00in /  0mm WeatherDisplay:10.37 W/m2
01:29 83.1 °F /  28.4 °C 63.7 °F /  17.6 °C 29.81in /  1009.4hPa WNW 2.3mph /  3.7km/h 0.2mph /  0.3km/h 52% 0.00in /  0mm WeatherDisplay:10.37 W/m2
01:34 82.9 °F /  28.3 °C 64.0 °F /  17.8 °C 29.80in /  1009hPa WNW 4.0mph /  6.4km/h 1.2mph /  1.9km/h 53% 0.00in /  0mm WeatherDisplay:10.37 W/m2
01:39 82.7 °F /  28.2 °C 63.8 °F /  17.7 °C 29.80in /  1009hPa WNW 3.5mph /  5.6km/h 2.5mph /  4km/h 53% 0.00in /  0mm WeatherDisplay:10.37 W/m2
01:44 82.5 °F /  28.1 °C 64.2 °F /  17.9 °C 29.80in /  1009hPa West 3.5mph /  5.6km/h 2.1mph /  3.4km/h 54% 0.00in /  0mm WeatherDisplay:10.37 W/m2
01:49 82.3 °F /  27.9 °C 64.5 °F /  18.1 °C 29.80in /  1009hPa WNW 1.2mph /  1.9km/h 0.1mph /  0.2km/h 55% 0.00in /  0mm WeatherDisplay:10.37 W/m2
01:54 82.3 °F /  27.9 °C 64.5 °F /  18.1 °C 29.80in /  1009hPa West 4.0mph /  6.4km/h 1.8mph /  2.9km/h 55% 0.00in /  0mm WeatherDisplay:10.37 W/m2
01:59 82.2 °F /  27.9 °C 64.4 °F /  18 °C 29.80in /  1009hPa WNW 4.0mph /  6.4km/h 3.0mph /  4.8km/h 55% 0.00in /  0mm WeatherDisplay:10.37 W/m2
02:04 81.9 °F /  27.7 °C 64.7 °F /  18.2 °C 29.80in /  1009hPa WNW 3.5mph /  5.6km/h 2.1mph /  3.4km/h 56% 0.00in /  0mm WeatherDisplay:10.37 W/m2
02:09 81.9 °F /  27.7 °C 64.1 °F /  17.8 °C 29.80in /  1009hPa WNW 4.0mph /  6.4km/h 1.9mph /  3.1km/h 55% 0.00in /  0mm WeatherDisplay:10.37 W/m2
02:14 81.7 °F /  27.6 °C 64.5 °F /  18.1 °C 29.80in /  1009hPa WNW 4.0mph /  6.4km/h 3.1mph /  5km/h 56% 0.00in /  0mm WeatherDisplay:10.37 W/m2
02:19 81.6 °F /  27.6 °C 64.4 °F /  18 °C 29.80in /  1009hPa WNW 3.5mph /  5.6km/h 2.3mph /  3.7km/h 56% 0.00in /  0mm WeatherDisplay:10.37 W/m2
02:24 81.5 °F /  27.5 °C 64.3 °F /  17.9 °C 29.81in /  1009.4hPa WSW 3.5mph /  5.6km/h 1.5mph /  2.4km/h 56% 0.00in /  0mm WeatherDisplay:10.37 W/m2
02:29 81.4 °F /  27.4 °C 64.7 °F /  18.2 °C 29.81in /  1009.4hPa SW 2.3mph /  3.7km/h 1.1mph /  1.8km/h 57% 0.00in /  0mm WeatherDisplay:10.37 W/m2
02:34 81.1 °F /  27.3 °C 64.9 °F /  18.3 °C 29.81in /  1009.4hPa WSW 3.5mph /  5.6km/h 1.1mph /  1.8km/h 58% 0.00in /  0mm WeatherDisplay:10.37 W/m2
02:39 81.0 °F /  27.2 °C 64.8 °F /  18.2 °C 29.81in /  1009.4hPa WSW 2.3mph /  3.7km/h 0.7mph /  1.1km/h 58% 0.00in /  0mm WeatherDisplay:10.37 W/m2
02:44 80.9 °F /  27.2 °C 65.2 °F /  18.4 °C 29.82in /  1009.7hPa Calm   0.1mph /  0.2km/h 59% 0.00in /  0mm WeatherDisplay:10.37 W/m2
02:49 80.8 °F /  27.1 °C 65.1 °F /  18.4 °C 29.82in /  1009.7hPa WSW 1.2mph /  1.9km/h 0.3mph /  0.5km/h 59% 0.00in /  0mm WeatherDisplay:10.37 W/m2
02:54 80.7 °F /  27.1 °C 65.5 °F /  18.6 °C 29.82in /  1009.7hPa Calm     60% 0.00in /  0mm WeatherDisplay:10.37 W/m2
02:59 80.7 °F /  27.1 °C 65.5 °F /  18.6 °C 29.82in /  1009.7hPa West 3.5mph /  5.6km/h 0.6mph /  1km/h 60% 0.00in /  0mm WeatherDisplay:10.37 W/m2
03:04 80.6 °F /  27 °C 65.4 °F /  18.6 °C 29.82in /  1009.7hPa WSW 1.0mph /  1.6km/h 0.1mph /  0.2km/h 60% 0.00in /  0mm WeatherDisplay:10.37 W/m2
03:09 80.5 °F /  26.9 °C 65.8 °F /  18.8 °C 29.81in /  1009.4hPa WSW 2.3mph /  3.7km/h 0.6mph /  1km/h 61% 0.00in /  0mm WeatherDisplay:10.37 W/m2
03:14 80.4 °F /  26.9 °C 66.6 °F /  19.2 °C 29.81in /  1009.4hPa West 2.3mph /  3.7km/h 1.5mph /  2.4km/h 63% 0.00in /  0mm WeatherDisplay:10.37 W/m2
03:19 80.4 °F /  26.9 °C 67.1 °F /  19.5 °C 29.81in /  1009.4hPa WNW 3.5mph /  5.6km/h 1.9mph /  3.1km/h 64% 0.00in /  0mm WeatherDisplay:10.37 W/m2
03:24 80.2 °F /  26.8 °C 67.4 °F /  19.7 °C 29.81in /  1009.4hPa West 3.5mph /  5.6km/h 1.3mph /  2.1km/h 65% 0.00in /  0mm WeatherDisplay:10.37 W/m2
03:29 80.0 °F /  26.7 °C 67.2 °F /  19.6 °C 29.81in /  1009.4hPa West 2.3mph /  3.7km/h 1.8mph /  2.9km/h 65% 0.00in /  0mm WeatherDisplay:10.37 W/m2
03:34 80.0 °F /  26.7 °C 67.2 °F /  19.6 °C 29.81in /  1009.4hPa Calm     65% 0.00in /  0mm WeatherDisplay:10.37 W/m2
03:39 80.0 °F /  26.7 °C 67.6 °F /  19.8 °C 29.81in /  1009.4hPa West 2.3mph /  3.7km/h 0.9mph /  1.4km/h 66% 0.00in /  0mm WeatherDisplay:10.37 W/m2
03:44 79.9 °F /  26.6 °C 67.5 °F /  19.7 °C 29.81in /  1009.4hPa West 2.3mph /  3.7km/h 0.7mph /  1.1km/h 66% 0.00in /  0mm WeatherDisplay:10.37 W/m2
03:49 79.7 °F /  26.5 °C 67.3 °F /  19.6 °C 29.81in /  1009.4hPa Calm     66% 0.00in /  0mm WeatherDisplay:10.37 W/m2
03:54 79.6 °F /  26.4 °C 67.7 °F /  19.8 °C 29.81in /  1009.4hPa Calm     67% 0.00in /  0mm WeatherDisplay:10.37 W/m2
03:59 79.5 °F /  26.4 °C 68.0 °F /  20 °C 29.81in /  1009.4hPa Calm     68% 0.00in /  0mm WeatherDisplay:10.37 W/m2
04:04 79.5 °F /  26.4 °C 67.6 °F /  19.8 °C 29.81in /  1009.4hPa Calm     67% 0.00in /  0mm WeatherDisplay:10.37 W/m2
04:09 79.4 °F /  26.3 °C 67.5 °F /  19.7 °C 29.81in /  1009.4hPa Calm     67% 0.00in /  0mm WeatherDisplay:10.37 W/m2
04:14 79.4 °F /  26.3 °C 67.9 °F /  19.9 °C 29.81in /  1009.4hPa Calm     68% 0.00in /  0mm WeatherDisplay:10.37 W/m2
04:19 79.5 °F /  26.4 °C 68.4 °F /  20.2 °C 29.81in /  1009.4hPa Calm     69% 0.00in /  0mm WeatherDisplay:10.37 W/m2
04:24 79.5 °F /  26.4 °C 68.4 °F /  20.2 °C 29.82in /  1009.7hPa Calm     69% 0.00in /  0mm WeatherDisplay:10.37 W/m2
04:29 79.4 °F /  26.3 °C 68.3 °F /  20.2 °C 29.81in /  1009.4hPa Calm     69% 0.00in /  0mm WeatherDisplay:10.37 W/m2
04:34 79.2 °F /  26.2 °C 68.1 °F /  20.1 °C 29.81in /  1009.4hPa Calm     69% 0.00in /  0mm WeatherDisplay:10.37 W/m2
04:39 79.3 °F /  26.3 °C 68.2 °F /  20.1 °C 29.81in /  1009.4hPa Calm     69% 0.00in /  0mm WeatherDisplay:10.37 W/m2
04:44 79.2 °F /  26.2 °C 67.7 °F /  19.8 °C 29.81in /  1009.4hPa Calm     68% 0.00in /  0mm WeatherDisplay:10.37 W/m2
04:49 79.2 °F /  26.2 °C 67.3 °F /  19.6 °C 29.81in /  1009.4hPa Calm     67% 0.00in /  0mm WeatherDisplay:10.37 W/m2
04:54 79.4 °F /  26.3 °C 68.3 °F /  20.2 °C 29.81in /  1009.4hPa Calm     69% 0.00in /  0mm WeatherDisplay:10.37 W/m2
04:59 79.4 °F /  26.3 °C 68.3 °F /  20.2 °C 29.81in /  1009.4hPa Calm     69% 0.00in /  0mm WeatherDisplay:10.37 W/m2
05:04 79.5 °F /  26.4 °C 67.6 °F /  19.8 °C 29.81in /  1009.4hPa Calm     67% 0.00in /  0mm WeatherDisplay:10.37 W/m2
05:09 79.6 °F /  26.4 °C 67.2 °F /  19.6 °C 29.82in /  1009.7hPa Calm     66% 0.00in /  0mm WeatherDisplay:10.37 W/m2
05:14 79.6 °F /  26.4 °C 66.8 °F /  19.3 °C 29.82in /  1009.7hPa Calm     65% 0.00in /  0mm WeatherDisplay:10.37 W/m2
05:19 79.6 °F /  26.4 °C 67.2 °F /  19.6 °C 29.82in /  1009.7hPa SSW 1.2mph /  1.9km/h 0.3mph /  0.5km/h 66% 0.00in /  0mm WeatherDisplay:10.37 W/m2
05:24 79.5 °F /  26.4 °C 66.7 °F /  19.3 °C 29.82in /  1009.7hPa Calm     65% 0.00in /  0mm WeatherDisplay:10.37 W/m2
05:29 79.5 °F /  26.4 °C 66.3 °F /  19.1 °C 29.82in /  1009.7hPa Calm     64% 0.00in /  0mm WeatherDisplay:10.37 W/m2
05:34 79.7 °F /  26.5 °C 66.0 °F /  18.9 °C 29.83in /  1010hPa Calm     63% 0.00in /  0mm WeatherDisplay:10.37 W/m2
05:39 79.9 °F /  26.6 °C 65.2 °F /  18.4 °C 29.83in /  1010hPa Calm     61% 0.00in /  0mm WeatherDisplay:10.37 W/m2
05:44 80.1 °F /  26.7 °C 64.0 °F /  17.8 °C 29.83in /  1010hPa Calm     58% 0.00in /  0mm WeatherDisplay:10.37 W/m2
05:49 80.6 °F /  27 °C 62.4 °F /  16.9 °C 29.83in /  1010hPa Calm     54% 0.00in /  0mm WeatherDisplay:10.37 W/m2
05:54 81.2 °F /  27.3 °C 61.9 °F /  16.6 °C 29.83in /  1010hPa SE 1.2mph /  1.9km/h   52% 0.00in /  0mm WeatherDisplay:10.37 W/m2
05:59 81.6 °F /  27.6 °C 61.2 °F /  16.2 °C 29.83in /  1010hPa SE 1.2mph /  1.9km/h 0.5mph /  0.8km/h 50% 0.00in /  0mm WeatherDisplay:10.37 W/m2
06:04 82.1 °F /  27.8 °C 62.2 °F /  16.8 °C 29.83in /  1010hPa ESE 3.5mph /  5.6km/h 2.2mph /  3.5km/h 51% 0.00in /  0mm WeatherDisplay:10.37 W/m2
06:09 81.9 °F /  27.7 °C 62.0 °F /  16.7 °C 29.83in /  1010hPa SE 1.2mph /  1.9km/h   51% 0.00in /  0mm WeatherDisplay:10.37 W/m2
06:14 82.2 °F /  27.9 °C 63.4 °F /  17.4 °C 29.84in /  1010.4hPa SE 3.5mph /  5.6km/h 2.1mph /  3.4km/h 53% 0.00in /  0mm WeatherDisplay:10.37 W/m2
06:19 82.3 °F /  27.9 °C 64.5 °F /  18.1 °C 29.84in /  1010.4hPa SE 4.6mph /  7.4km/h 3.3mph /  5.3km/h 55% 0.00in /  0mm WeatherDisplay:10.37 W/m2
06:24 82.4 °F /  28 °C 65.1 °F /  18.4 °C 29.84in /  1010.4hPa SE 4.0mph /  6.4km/h 2.2mph /  3.5km/h 56% 0.00in /  0mm WeatherDisplay:10.37 W/m2
06:29 82.5 °F /  28.1 °C 65.2 °F /  18.4 °C 29.84in /  1010.4hPa SE 5.0mph /  8km/h 3.5mph /  5.6km/h 56% 0.00in /  0mm WeatherDisplay:10.37 W/m2
06:34 82.8 °F /  28.2 °C 65.0 °F /  18.3 °C 29.84in /  1010.4hPa SE 3.5mph /  5.6km/h 2.3mph /  3.7km/h 55% 0.00in /  0mm WeatherDisplay:10.37 W/m2
06:39 83.3 °F /  28.5 °C 64.9 °F /  18.3 °C 29.84in /  1010.4hPa SE 3.5mph /  5.6km/h 2.2mph /  3.5km/h 54% 0.00in /  0mm WeatherDisplay:10.37 W/m2
06:44 83.7 °F /  28.7 °C 64.2 °F /  17.9 °C 29.84in /  1010.4hPa SE 2.3mph /  3.7km/h 1.1mph /  1.8km/h 52% 0.00in /  0mm WeatherDisplay:10.37 W/m2
06:49 84.3 °F /  29.1 °C 64.2 °F /  17.9 °C 29.84in /  1010.4hPa East 2.3mph /  3.7km/h 1.3mph /  2.1km/h 51% 0.00in /  0mm WeatherDisplay:10.37 W/m2
06:54 84.6 °F /  29.2 °C 63.9 °F /  17.7 °C 29.84in /  1010.4hPa SE 4.0mph /  6.4km/h 2.7mph /  4.3km/h 50% 0.00in /  0mm WeatherDisplay:10.37 W/m2
06:59 85.0 °F /  29.4 °C 63.7 °F /  17.6 °C 29.84in /  1010.4hPa ESE 3.5mph /  5.6km/h 2.5mph /  4km/h 49% 0.00in /  0mm WeatherDisplay:10.37 W/m2
07:04 85.2 °F /  29.6 °C 62.7 °F /  17.1 °C 29.84in /  1010.4hPa ESE 3.5mph /  5.6km/h 2.8mph /  4.5km/h 47% 0.00in /  0mm WeatherDisplay:10.37 W/m2
07:09 85.4 °F /  29.7 °C 62.3 °F /  16.8 °C 29.85in /  1010.7hPa SE 5.0mph /  8km/h 3.4mph /  5.5km/h 46% 0.00in /  0mm WeatherDisplay:10.37 W/m2
07:14 85.7 °F /  29.8 °C 62.5 °F /  16.9 °C 29.85in /  1010.7hPa East 4.6mph /  7.4km/h 2.9mph /  4.7km/h 46% 0.00in /  0mm WeatherDisplay:10.37 W/m2
07:19 85.9 °F /  29.9 °C 62.1 °F /  16.7 °C 29.85in /  1010.7hPa SSE 4.6mph /  7.4km/h 2.8mph /  4.5km/h 45% 0.00in /  0mm WeatherDisplay:10.37 W/m2
07:24 86.2 °F /  30.1 °C 61.7 °F /  16.5 °C 29.85in /  1010.7hPa East 4.6mph /  7.4km/h 2.5mph /  4km/h 44% 0.00in /  0mm WeatherDisplay:10.37 W/m2
07:29 86.6 °F /  30.3 °C 62.1 °F /  16.7 °C 29.85in /  1010.7hPa SE 3.5mph /  5.6km/h 1.8mph /  2.9km/h 44% 0.00in /  0mm WeatherDisplay:10.37 W/m2
07:34 86.9 °F /  30.5 °C 61.7 °F /  16.5 °C 29.85in /  1010.7hPa SE 6.9mph /  11.1km/h 4.9mph /  7.9km/h 43% 0.00in /  0mm WeatherDisplay:10.37 W/m2
07:39 87.2 °F /  30.7 °C 61.3 °F /  16.3 °C 29.85in /  1010.7hPa SE 5.8mph /  9.3km/h 4.7mph /  7.6km/h 42% 0.00in /  0mm WeatherDisplay:10.37 W/m2
07:44 87.6 °F /  30.9 °C 61.7 °F /  16.5 °C 29.85in /  1010.7hPa SSW 5.8mph /  9.3km/h 3.5mph /  5.6km/h 42% 0.00in /  0mm WeatherDisplay:10.37 W/m2
07:49 88.2 °F /  31.2 °C 61.5 °F /  16.4 °C 29.85in /  1010.7hPa SSE 5.8mph /  9.3km/h 4.1mph /  6.6km/h 41% 0.00in /  0mm WeatherDisplay:10.37 W/m2
07:54 88.4 °F /  31.3 °C 61.7 °F /  16.5 °C 29.85in /  1010.7hPa ESE 7.0mph /  11.3km/h 5.4mph /  8.7km/h 41% 0.00in /  0mm WeatherDisplay:10.37 W/m2
07:59 88.3 °F /  31.3 °C 61.6 °F /  16.4 °C 29.85in /  1010.7hPa SE 6.9mph /  11.1km/h 3.9mph /  6.3km/h 41% 0.00in /  0mm WeatherDisplay:10.37 W/m2
08:04 88.4 °F /  31.3 °C 61.7 °F /  16.5 °C 29.85in /  1010.7hPa SE 4.6mph /  7.4km/h 3.8mph /  6.1km/h 41% 0.00in /  0mm WeatherDisplay:10.37 W/m2
08:09 89.0 °F /  31.7 °C 61.5 °F /  16.4 °C 29.85in /  1010.7hPa South 3.5mph /  5.6km/h 2.7mph /  4.3km/h 40% 0.00in /  0mm WeatherDisplay:10.37 W/m2
08:14 89.8 °F /  32.1 °C 62.3 °F /  16.8 °C 29.85in /  1010.7hPa ESE 2.3mph /  3.7km/h 1.2mph /  1.9km/h 40% 0.00in /  0mm WeatherDisplay:10.37 W/m2
08:19 90.7 °F /  32.6 °C 61.6 °F /  16.4 °C 29.85in /  1010.7hPa NE 3.5mph /  5.6km/h 1.4mph /  2.3km/h 38% 0.00in /  0mm WeatherDisplay:10.37 W/m2
08:24 90.5 °F /  32.5 °C 61.4 °F /  16.3 °C 29.85in /  1010.7hPa SE 3.5mph /  5.6km/h 1.4mph /  2.3km/h 38% 0.00in /  0mm WeatherDisplay:10.37 W/m2
08:29 90.8 °F /  32.7 °C 61.7 °F /  16.5 °C 29.85in /  1010.7hPa SE 5.8mph /  9.3km/h 4.5mph /  7.2km/h 38% 0.00in /  0mm WeatherDisplay:10.37 W/m2
08:34 90.4 °F /  32.4 °C 62.1 °F /  16.7 °C 29.85in /  1010.7hPa East 2.3mph /  3.7km/h 0.2mph /  0.3km/h 39% 0.00in /  0mm WeatherDisplay:10.37 W/m2
08:39 90.5 °F /  32.5 °C 62.2 °F /  16.8 °C 29.86in /  1011.1hPa ESE 7.0mph /  11.3km/h 5.2mph /  8.4km/h 39% 0.00in /  0mm WeatherDisplay:10.37 W/m2
08:44 90.4 °F /  32.4 °C 62.1 °F /  16.7 °C 29.86in /  1011.1hPa ESE 5.0mph /  8km/h 3.8mph /  6.1km/h 39% 0.00in /  0mm WeatherDisplay:10.37 W/m2
08:49 90.9 °F /  32.7 °C 62.5 °F /  16.9 °C 29.85in /  1010.7hPa SE 3.5mph /  5.6km/h 1.6mph /  2.6km/h 39% 0.00in /  0mm WeatherDisplay:10.37 W/m2
08:54 91.2 °F /  32.9 °C 62.8 °F /  17.1 °C 29.85in /  1010.7hPa ESE 4.6mph /  7.4km/h 2.7mph /  4.3km/h 39% 0.00in /  0mm WeatherDisplay:10.37 W/m2
08:59 91.8 °F /  33.2 °C 63.3 °F /  17.4 °C 29.85in /  1010.7hPa SE 2.3mph /  3.7km/h 1.3mph /  2.1km/h 39% 0.00in /  0mm WeatherDisplay:10.37 W/m2
09:04 92.3 °F /  33.5 °C 63.0 °F /  17.2 °C 29.85in /  1010.7hPa SE 5.0mph /  8km/h 3.9mph /  6.3km/h 38% 0.00in /  0mm WeatherDisplay:10.37 W/m2
09:09 91.7 °F /  33.2 °C 63.2 °F /  17.3 °C 29.85in /  1010.7hPa East 3.0mph /  4.8km/h 0.4mph /  0.6km/h 39% 0.00in /  0mm WeatherDisplay:10.37 W/m2
09:14 91.8 °F /  33.2 °C 61.8 °F /  16.6 °C 29.85in /  1010.7hPa ESE 4.6mph /  7.4km/h 3.5mph /  5.6km/h 37% 0.00in /  0mm WeatherDisplay:10.37 W/m2
09:19 92.5 °F /  33.6 °C 63.2 °F /  17.3 °C 29.85in /  1010.7hPa East 2.0mph /  3.2km/h 0.2mph /  0.3km/h 38% 0.00in /  0mm WeatherDisplay:10.37 W/m2
09:24 92.7 °F /  33.7 °C 62.6 °F /  17 °C 29.84in /  1010.4hPa ENE 3.5mph /  5.6km/h 2.3mph /  3.7km/h 37% 0.00in /  0mm WeatherDisplay:10.37 W/m2
09:29 92.9 °F /  33.8 °C 62.8 °F /  17.1 °C 29.84in /  1010.4hPa NNW 2.3mph /  3.7km/h   37% 0.00in /  0mm WeatherDisplay:10.37 W/m2
09:34 93.7 °F /  34.3 °C 62.7 °F /  17.1 °C 29.84in /  1010.4hPa SSE 5.8mph /  9.3km/h 3.1mph /  5km/h 36% 0.00in /  0mm WeatherDisplay:10.37 W/m2
09:39 93.6 °F /  34.2 °C 62.6 °F /  17 °C 29.84in /  1010.4hPa NE 3.0mph /  4.8km/h 0.1mph /  0.2km/h 36% 0.00in /  0mm WeatherDisplay:10.37 W/m2
09:44 93.6 °F /  34.2 °C 63.4 °F /  17.4 °C 29.84in /  1010.4hPa Calm     37% 0.00in /  0mm WeatherDisplay:10.37 W/m2
09:49 94.4 °F /  34.7 °C 63.3 °F /  17.4 °C 29.84in /  1010.4hPa SSW 2.0mph /  3.2km/h 0.3mph /  0.5km/h 36% 0.00in /  0mm WeatherDisplay:10.37 W/m2
09:54 94.9 °F /  34.9 °C 63.0 °F /  17.2 °C 29.84in /  1010.4hPa East 3.5mph /  5.6km/h 1.9mph /  3.1km/h 35% 0.00in /  0mm WeatherDisplay:10.37 W/m2
09:59 94.5 °F /  34.7 °C 63.4 °F /  17.4 °C 29.84in /  1010.4hPa ESE 4.0mph /  6.4km/h 1.9mph /  3.1km/h 36% 0.00in /  0mm WeatherDisplay:10.37 W/m2
10:04 94.4 °F /  34.7 °C 63.3 °F /  17.4 °C 29.84in /  1010.4hPa ENE 2.3mph /  3.7km/h 1.1mph /  1.8km/h 36% 0.00in /  0mm WeatherDisplay:10.37 W/m2
10:09 94.6 °F /  34.8 °C 63.5 °F /  17.5 °C 29.84in /  1010.4hPa SE 2.3mph /  3.7km/h 0.6mph /  1km/h 36% 0.00in /  0mm WeatherDisplay:10.37 W/m2
10:13 95.0 °F /  35 °C 63.9 °F /  17.7 °C 29.83in /  1010hPa Calm     36% 0.00in /  0mm WeatherDisplay:10.37 W/m2
10:19 95.5 °F /  35.3 °C 64.3 °F /  17.9 °C 29.83in /  1010hPa NNE 1.2mph /  1.9km/h   36% 0.00in /  0mm WeatherDisplay:10.37 W/m2
10:24 95.6 °F /  35.3 °C 64.4 °F /  18 °C 29.83in /  1010hPa WNW 1.2mph /  1.9km/h   36% 0.00in /  0mm WeatherDisplay:10.37 W/m2
10:29 97.0 °F /  36.1 °C 64.8 °F /  18.2 °C 29.83in /  1010hPa ENE 1.0mph /  1.6km/h 0.1mph /  0.2km/h 35% 0.00in /  0mm WeatherDisplay:10.37 W/m2
Hermosillo, Sonora, Mexico
Compliments of Weather Underground - 2 mb